createdAt,value
2017-11-15T00:02:19.508Z,6.90
2017-11-15T00:04:47.794Z,6.17
2017-11-15T00:07:17.273Z,6.50
2017-11-15T00:09:45.241Z,6.90
2017-11-15T00:12:13.135Z,6.20
2017-11-15T00:14:41.180Z,7.27
2017-11-15T00:17:09.850Z,7.50
2017-11-15T00:19:37.654Z,7.03
2017-11-15T00:22:05.594Z,7.37
2017-11-15T00:24:33.479Z,7.50
2017-11-15T00:27:01.237Z,8.57
2017-11-15T00:29:29.297Z,7.77
2017-11-15T00:31:57.364Z,7.80
2017-11-15T00:34:25.257Z,7.83
2017-11-15T00:36:53.298Z,8.77
2017-11-15T00:39:21.297Z,7.80
2017-11-15T00:41:49.245Z,8.00
2017-11-15T00:44:17.233Z,8.57
2017-11-15T00:46:45.400Z,7.80
2017-11-15T00:49:13.267Z,8.17
2017-11-15T00:51:41.321Z,8.10
2017-11-15T00:54:09.187Z,8.03
2017-11-15T00:56:36.972Z,7.70
2017-11-15T00:59:04.979Z,7.33
2017-11-15T01:01:33.275Z,7.90
2017-11-15T01:04:01.202Z,7.40
2017-11-15T01:06:29.769Z,7.83
2017-11-15T01:08:57.532Z,8.17
2017-11-15T01:11:25.316Z,8.20
2017-11-15T01:13:54.285Z,6.73
2017-11-15T01:16:22.164Z,7.30
2017-11-15T01:18:50.748Z,6.10
2017-11-15T01:21:18.600Z,5.13
2017-11-15T01:23:46.672Z,6.13
2017-11-15T01:26:15.452Z,4.97
2017-11-15T01:28:43.227Z,5.00
2017-11-15T01:31:11.919Z,4.57
2017-11-15T01:33:39.707Z,4.97
2017-11-15T01:36:08.284Z,5.23
2017-11-15T01:38:36.937Z,4.90
2017-11-15T01:41:04.887Z,4.53
2017-11-15T01:43:32.754Z,5.40
2017-11-15T01:46:00.676Z,4.93
2017-11-15T01:48:29.533Z,5.37
2017-11-15T01:50:57.687Z,5.80
2017-11-15T01:53:25.677Z,5.60
2017-11-15T01:55:53.502Z,5.53
2017-11-15T01:58:21.324Z,6.50
2017-11-15T02:01:01.770Z,6.10
2017-11-15T02:03:29.642Z,7.37
2017-11-15T02:05:59.266Z,6.87
2017-11-15T02:08:27.923Z,6.37
2017-11-15T02:10:55.892Z,6.43
2017-11-15T02:13:23.730Z,6.80
2017-11-15T02:15:51.714Z,6.67
2017-11-15T02:18:19.731Z,6.77
2017-11-15T02:20:48.499Z,6.50
2017-11-15T02:23:16.534Z,5.73
2017-11-15T02:25:44.413Z,7.13
2017-11-15T02:28:12.263Z,6.77
2017-11-15T02:30:40.153Z,7.63
2017-11-15T02:33:08.219Z,7.43
2017-11-15T02:35:36.206Z,6.73
2017-11-15T02:38:04.843Z,6.93
2017-11-15T02:40:32.744Z,6.80
2017-11-15T02:43:00.817Z,8.17
2017-11-15T02:45:28.676Z,6.20
2017-11-15T02:47:56.631Z,6.07
2017-11-15T02:50:24.525Z,5.10
2017-11-15T02:52:53.390Z,5.87
2017-11-15T02:55:21.355Z,5.60
2017-11-15T02:57:49.233Z,5.43
2017-11-15T03:00:17.300Z,5.50
2017-11-15T03:02:45.090Z,5.17
2017-11-15T03:05:13.358Z,4.77
2017-11-15T03:07:41.328Z,4.90
2017-11-15T03:10:09.283Z,4.80
2017-11-15T03:12:37.251Z,5.70
2017-11-15T03:15:05.266Z,6.67
2017-11-15T03:17:33.927Z,5.40
2017-11-15T03:20:02.093Z,5.10
2017-11-15T03:22:30.263Z,5.90
2017-11-15T03:24:58.936Z,5.80
2017-11-15T03:27:26.867Z,6.27
2017-11-15T03:29:54.783Z,7.53
2017-11-15T03:32:22.856Z,6.07
2017-11-15T03:34:51.036Z,6.07
2017-11-15T03:37:18.977Z,7.63
2017-11-15T03:39:46.739Z,5.30
2017-11-15T03:42:14.477Z,5.27
2017-11-15T03:44:43.385Z,5.10
2017-11-15T03:47:11.185Z,5.30
2017-11-15T03:49:39.303Z,5.00
2017-11-15T03:52:07.158Z,3.57
2017-11-15T03:54:34.975Z,4.80
2017-11-15T03:57:02.956Z,4.60
2017-11-15T03:59:30.812Z,4.60
2017-11-15T04:01:58.579Z,5.33
2017-11-15T04:04:26.412Z,4.90
2017-11-15T04:06:54.211Z,5.30
2017-11-15T04:09:22.068Z,5.33
2017-11-15T04:11:49.920Z,5.57
2017-11-15T04:14:17.744Z,6.63
2017-11-15T04:16:45.564Z,5.67
2017-11-15T04:19:13.753Z,5.80
2017-11-15T04:21:41.592Z,5.73
2017-11-15T04:24:09.452Z,6.60
2017-11-15T04:26:37.385Z,6.80
2017-11-15T04:29:05.307Z,5.93
2017-11-15T04:31:33.107Z,7.23
2017-11-15T04:34:01.658Z,6.60
2017-11-15T04:36:31.143Z,6.00
2017-11-15T04:38:59.022Z,7.40
2017-11-15T04:41:26.996Z,6.87
2017-11-15T04:43:54.864Z,7.00
2017-11-15T04:46:22.719Z,6.90
2017-11-15T04:48:50.481Z,7.70
2017-11-15T04:51:18.358Z,7.23
2017-11-15T04:53:46.435Z,7.80
2017-11-15T04:56:14.375Z,6.90
2017-11-15T04:58:42.118Z,7.37
2017-11-15T05:01:10.027Z,6.47
2017-11-15T05:03:38.014Z,6.27
2017-11-15T05:06:05.881Z,6.23
2017-11-15T05:08:35.277Z,5.50
2017-11-15T05:11:03.421Z,5.80
2017-11-15T05:13:31.304Z,5.17
2017-11-15T05:15:59.273Z,5.37
2017-11-15T05:18:27.373Z,4.40
2017-11-15T05:20:56.198Z,5.67
2017-11-15T05:23:24.164Z,7.50
2017-11-15T05:25:52.055Z,5.40
2017-11-15T05:28:19.932Z,6.57
2017-11-15T05:30:49.541Z,5.40
2017-11-15T05:33:17.624Z,5.70
2017-11-15T05:35:45.774Z,4.73
2017-11-15T05:38:14.376Z,6.30
2017-11-15T05:40:42.449Z,5.20
2017-11-15T05:43:10.395Z,6.73
2017-11-15T05:45:38.175Z,6.10
2017-11-15T05:48:06.124Z,7.20
2017-11-15T05:50:34.942Z,9.37
2017-11-15T05:53:02.879Z,10.77
2017-11-15T05:55:30.765Z,12.40
2017-11-15T05:57:58.632Z,10.30
2017-11-15T06:00:26.395Z,11.20
2017-11-15T06:02:54.260Z,10.70
2017-11-15T06:05:22.130Z,10.10
2017-11-15T06:07:50.792Z,10.23
2017-11-15T06:10:20.169Z,9.30
2017-11-15T06:12:48.085Z,7.17
2017-11-15T06:15:16.598Z,6.10
2017-11-15T06:17:45.255Z,6.60
2017-11-15T06:20:13.286Z,7.50
2017-11-15T06:22:41.049Z,8.30
2017-11-15T06:25:08.859Z,8.50
2017-11-15T06:27:37.515Z,8.33
2017-11-15T06:30:05.448Z,6.37
2017-11-15T06:32:33.539Z,5.30
2017-11-15T06:35:01.486Z,6.90
2017-11-15T06:37:30.013Z,6.73
2017-11-15T06:39:58.301Z,7.07
2017-11-15T06:42:26.309Z,6.57
2017-11-15T06:44:54.264Z,8.23
2017-11-15T06:47:22.288Z,8.53
2017-11-15T06:49:50.420Z,9.73
2017-11-15T06:52:18.627Z,9.30
2017-11-15T06:54:46.603Z,10.87
2017-11-15T06:57:14.478Z,9.30
2017-11-15T06:59:43.644Z,10.97
2017-11-15T07:02:11.467Z,15.50
2017-11-15T07:04:40.129Z,15.73
2017-11-15T07:07:08.001Z,13.23
2017-11-15T07:09:37.689Z,10.80
2017-11-15T07:12:05.946Z,14.57
2017-11-15T07:14:33.759Z,14.30
2017-11-15T07:17:01.633Z,17.83
2017-11-15T07:19:30.187Z,16.00
2017-11-15T07:21:58.076Z,13.83
2017-11-15T07:24:25.907Z,13.83
2017-11-15T07:26:53.818Z,15.93
2017-11-15T07:29:22.390Z,35.57
2017-11-15T07:31:51.072Z,17.43
2017-11-15T07:34:19.606Z,15.30
2017-11-15T07:36:47.618Z,15.33
2017-11-15T07:39:15.965Z,13.47
2017-11-15T07:41:43.843Z,13.47
2017-11-15T07:44:11.595Z,15.60
2017-11-15T07:46:39.365Z,13.63
2017-11-15T07:49:07.261Z,18.77
2017-11-15T07:51:35.366Z,14.80
2017-11-15T07:54:03.288Z,14.87
2017-11-15T07:56:31.154Z,12.70
2017-11-15T07:58:59.043Z,14.83
2017-11-15T08:01:26.900Z,12.70
2017-11-15T08:03:54.840Z,12.87
2017-11-15T08:06:22.828Z,13.97
2017-11-15T08:08:50.676Z,12.27
2017-11-15T08:11:18.514Z,19.50
2017-11-15T08:13:46.382Z,14.30
2017-11-15T08:16:14.909Z,13.90
2017-11-15T08:18:42.868Z,13.37
2017-11-15T08:21:10.633Z,14.00
2017-11-15T08:23:40.467Z,14.40
2017-11-15T08:26:08.320Z,14.80
2017-11-15T08:28:36.191Z,13.73
2017-11-15T08:31:04.051Z,16.43
2017-11-15T08:33:32.510Z,16.93
2017-11-15T08:36:00.444Z,15.33
2017-11-15T08:38:28.477Z,15.37
2017-11-15T08:40:56.436Z,15.23
2017-11-15T08:43:24.212Z,16.30
2017-11-15T08:45:52.178Z,15.20
2017-11-15T08:48:20.140Z,15.00
2017-11-15T08:50:48.054Z,15.87
2017-11-15T08:53:15.959Z,13.83
2017-11-15T08:55:44.916Z,14.20
2017-11-15T08:58:12.920Z,14.90
2017-11-15T09:00:42.412Z,14.43
2017-11-15T09:03:10.291Z,13.13
2017-11-15T09:05:38.262Z,12.10
2017-11-15T09:08:06.131Z,12.10
2017-11-15T09:10:33.925Z,11.30
2017-11-15T09:13:01.797Z,11.60
2017-11-15T09:15:30.543Z,14.27
2017-11-15T09:17:58.299Z,12.67
2017-11-15T09:20:26.194Z,14.70
2017-11-15T09:22:53.992Z,12.13
2017-11-15T09:25:22.930Z,13.43
2017-11-15T09:27:50.799Z,12.17
2017-11-15T09:30:18.578Z,11.30
2017-11-15T09:32:47.163Z,12.73
2017-11-15T09:35:15.021Z,13.27
2017-11-15T09:37:42.776Z,11.73
2017-11-15T09:40:10.542Z,12.83
2017-11-15T09:42:39.336Z,11.40
2017-11-15T09:45:07.219Z,11.80
2017-11-15T09:47:38.917Z,10.47
2017-11-15T09:50:07.628Z,8.87
2017-11-15T09:52:35.578Z,9.17
2017-11-15T09:55:03.455Z,8.53
2017-11-15T09:57:31.280Z,9.77
2017-11-15T09:59:59.826Z,9.07
2017-11-15T10:02:27.587Z,10.67
2017-11-15T10:04:56.271Z,9.50
2017-11-15T10:07:24.158Z,8.67
2017-11-15T10:09:51.915Z,10.10
2017-11-15T10:12:19.769Z,9.50
2017-11-15T10:14:47.579Z,8.40
2017-11-15T10:17:16.634Z,8.67
2017-11-15T10:19:44.482Z,10.27
2017-11-15T10:22:12.253Z,8.70
2017-11-15T10:24:40.137Z,10.60
2017-11-15T10:27:08.095Z,9.10
2017-11-15T10:29:35.981Z,8.67
2017-11-15T10:32:05.301Z,8.73
2017-11-15T10:34:34.973Z,11.03
2017-11-15T10:37:02.965Z,8.47
2017-11-15T10:39:30.826Z,9.07
2017-11-15T10:41:58.688Z,12.67
2017-11-15T10:44:27.791Z,11.50
2017-11-15T10:46:55.711Z,8.20
2017-11-15T10:49:24.437Z,7.83
2017-11-15T10:51:52.203Z,8.57
2017-11-15T10:54:20.069Z,9.17
2017-11-15T10:56:47.876Z,8.90
2017-11-15T10:59:15.811Z,10.43
2017-11-15T11:01:43.688Z,9.57
2017-11-15T11:04:12.353Z,8.70
2017-11-15T11:06:40.929Z,9.87
2017-11-15T11:09:08.803Z,10.13
2017-11-15T11:11:36.750Z,9.00
2017-11-15T11:14:05.743Z,8.63
2017-11-15T11:16:33.556Z,8.27
2017-11-15T11:19:02.330Z,8.50
2017-11-15T11:21:30.200Z,8.90
2017-11-15T11:23:58.150Z,8.53
2017-11-15T11:26:26.535Z,8.63
2017-11-15T11:28:54.498Z,8.17
2017-11-15T11:31:22.552Z,8.30
2017-11-15T11:33:50.308Z,7.40
2017-11-15T11:36:19.103Z,7.63
2017-11-15T11:38:47.484Z,8.50
2017-11-15T11:41:15.314Z,7.87
2017-11-15T11:43:43.132Z,7.17
2017-11-15T11:46:11.076Z,7.17
2017-11-15T11:48:38.849Z,7.90
2017-11-15T11:51:06.827Z,8.57
2017-11-15T11:53:34.616Z,8.33
2017-11-15T11:56:03.389Z,8.67
2017-11-15T11:58:31.179Z,9.80
2017-11-15T12:00:59.886Z,7.87
2017-11-15T12:03:27.816Z,12.87
2017-11-15T12:05:56.670Z,9.10
2017-11-15T12:08:24.639Z,8.77
2017-11-15T12:10:52.538Z,8.47
2017-11-15T12:13:20.472Z,8.00
2017-11-15T12:15:48.341Z,8.50
2017-11-15T12:18:16.336Z,8.73
2017-11-15T12:20:44.406Z,8.07
2017-11-15T12:23:12.200Z,8.63
2017-11-15T12:25:40.827Z,8.60
2017-11-15T12:28:08.804Z,8.30
2017-11-15T12:30:36.638Z,8.63
2017-11-15T12:33:04.744Z,9.37
2017-11-15T12:35:32.709Z,8.97
2017-11-15T12:38:00.612Z,8.40
2017-11-15T12:40:29.230Z,10.60
2017-11-15T12:43:00.265Z,8.87
2017-11-15T12:45:28.194Z,8.97
2017-11-15T12:47:56.173Z,11.53
2017-11-15T12:50:24.720Z,12.80
2017-11-15T12:52:52.508Z,14.63
2017-11-15T12:55:20.556Z,10.33
2017-11-15T12:57:48.667Z,11.20
2017-11-15T13:00:17.456Z,14.77
2017-11-15T13:02:46.200Z,11.47
2017-11-15T13:05:14.197Z,10.00
2017-11-15T13:07:42.144Z,11.33
2017-11-15T13:10:10.105Z,10.03
2017-11-15T13:12:37.921Z,10.87
2017-11-15T13:15:09.340Z,9.83
2017-11-15T13:17:37.943Z,10.60
2017-11-15T13:20:06.725Z,10.20
2017-11-15T13:22:34.764Z,11.07
2017-11-15T13:25:02.734Z,10.40
2017-11-15T13:27:32.059Z,9.63
2017-11-15T13:30:00.746Z,10.03
2017-11-15T13:32:28.791Z,10.10
2017-11-15T13:34:56.677Z,10.13
2017-11-15T13:37:25.056Z,8.97
2017-11-15T13:39:53.320Z,9.30
2017-11-15T13:42:21.194Z,8.50
2017-11-15T13:44:48.966Z,9.53
2017-11-15T13:47:17.058Z,8.83
2017-11-15T13:49:45.619Z,10.03
2017-11-15T13:52:13.586Z,9.57
2017-11-15T13:54:41.461Z,8.90
2017-11-15T13:57:09.523Z,10.37
2017-11-15T13:59:37.470Z,11.80
2017-11-15T14:02:05.674Z,10.70
2017-11-15T14:04:34.346Z,10.53
2017-11-15T14:07:02.226Z,11.87
2017-11-15T14:09:30.377Z,8.93
2017-11-15T14:11:58.286Z,9.70
2017-11-15T14:14:27.358Z,9.00
2017-11-15T14:16:56.692Z,9.53
2017-11-15T14:19:24.915Z,10.77
2017-11-15T14:21:52.879Z,8.60
2017-11-15T14:24:20.865Z,9.03
2017-11-15T14:26:48.731Z,9.70
2017-11-15T14:29:16.828Z,10.33
2017-11-15T14:31:44.753Z,8.70
2017-11-15T14:34:12.728Z,8.93
2017-11-15T14:36:42.361Z,9.97
2017-11-15T14:39:10.297Z,9.83
2017-11-15T14:41:38.469Z,10.77
2017-11-15T14:44:06.751Z,10.50
2017-11-15T14:46:34.721Z,8.83
2017-11-15T14:49:02.796Z,10.67
2017-11-15T14:51:30.862Z,9.17
2017-11-15T14:53:58.773Z,10.30
2017-11-15T14:56:27.576Z,10.50
2017-11-15T14:58:55.489Z,9.40
2017-11-15T15:01:23.454Z,9.63
2017-11-15T15:03:51.325Z,11.20
2017-11-15T15:06:19.492Z,9.57
2017-11-15T15:08:47.522Z,10.57
2017-11-15T15:11:15.534Z,10.50
2017-11-15T15:13:43.515Z,11.23
2017-11-15T15:16:11.775Z,10.90
2017-11-15T15:18:40.387Z,10.37
2017-11-15T15:21:08.654Z,12.17
2017-11-15T15:23:36.617Z,11.10
2017-11-15T15:26:04.570Z,11.00
2017-11-15T15:28:33.159Z,11.37
2017-11-15T15:31:01.127Z,11.53
2017-11-15T15:33:29.634Z,11.30
2017-11-15T15:35:57.578Z,11.50
2017-11-15T15:38:25.493Z,14.43
2017-11-15T15:40:53.615Z,17.03
2017-11-15T15:43:22.709Z,18.10
2017-11-15T15:45:50.618Z,16.00
2017-11-15T15:48:19.279Z,14.13
2017-11-15T15:50:49.075Z,12.70
2017-11-15T15:53:17.144Z,12.43
2017-11-15T15:55:45.038Z,11.57
2017-11-15T15:58:13.540Z,12.70
2017-11-15T16:03:35.747Z,14.90
2017-11-15T16:06:03.923Z,15.17
2017-11-15T16:08:31.889Z,17.03
2017-11-15T16:10:59.783Z,17.20
2017-11-15T16:13:28.399Z,15.60
2017-11-15T16:15:56.514Z,17.00
2017-11-15T16:18:24.708Z,17.37
2017-11-15T16:20:52.566Z,18.80
2017-11-15T16:23:20.518Z,19.50
2017-11-15T16:25:48.418Z,40.73
2017-11-15T16:28:17.013Z,46.40
2017-11-15T16:30:45.968Z,25.87
2017-11-15T16:33:14.034Z,24.33
2017-11-15T16:35:42.105Z,19.50
2017-11-15T16:38:10.214Z,19.40
2017-11-15T16:40:39.470Z,14.23
2017-11-15T16:43:07.654Z,11.47
2017-11-15T16:45:35.618Z,10.60
2017-11-15T16:48:03.512Z,10.47
2017-11-15T16:50:31.673Z,10.03
2017-11-15T16:52:59.643Z,18.00
2017-11-15T16:55:28.375Z,34.07
2017-11-15T16:57:56.308Z,29.43
2017-11-15T17:00:25.271Z,20.53
2017-11-15T17:02:53.021Z,16.07
2017-11-15T17:05:20.901Z,16.23
2017-11-15T17:07:48.892Z,15.20
2017-11-15T17:10:16.843Z,16.97
2017-11-15T17:12:44.936Z,13.90
2017-11-15T17:15:13.309Z,14.17
2017-11-15T17:17:41.666Z,18.37
2017-11-15T17:20:09.737Z,13.80
2017-11-15T17:22:38.137Z,13.07
2017-11-15T17:25:06.843Z,13.50
2017-11-15T17:27:35.566Z,13.70
2017-11-15T17:30:03.659Z,13.67
2017-11-15T17:32:31.730Z,18.53
2017-11-15T17:34:59.909Z,15.50
2017-11-15T17:37:28.693Z,25.70
2017-11-15T17:39:56.590Z,27.47
2017-11-15T17:42:24.938Z,27.00
2017-11-15T17:44:52.925Z,41.20
2017-11-15T17:47:20.998Z,29.53
2017-11-15T17:49:49.467Z,31.37
2017-11-15T17:52:17.524Z,31.03
2017-11-15T17:54:45.704Z,36.93
2017-11-15T17:57:13.899Z,24.87
2017-11-15T17:59:43.497Z,14.30
2017-11-15T18:02:11.629Z,13.37
2017-11-15T18:04:39.724Z,12.93
2017-11-15T18:07:08.246Z,12.37
2017-11-15T18:09:37.305Z,12.57
2017-11-15T18:12:05.273Z,14.27
2017-11-15T18:14:33.554Z,13.07
2017-11-15T18:17:01.620Z,12.80
2017-11-15T18:19:29.793Z,14.10
2017-11-15T18:21:57.806Z,13.80
2017-11-15T18:24:26.687Z,13.33
2017-11-15T18:26:55.595Z,12.93
2017-11-15T18:29:24.432Z,13.77
2017-11-15T18:31:52.913Z,17.73
2017-11-15T18:34:22.023Z,21.03
2017-11-15T18:36:50.026Z,24.93
2017-11-15T18:39:18.868Z,19.37
2017-11-15T18:41:47.142Z,17.90
2017-11-15T18:44:15.227Z,24.77
2017-11-15T18:46:43.284Z,24.03
2017-11-15T18:49:11.255Z,18.80
2017-11-15T18:51:39.185Z,15.00
2017-11-15T18:54:07.119Z,19.70
2017-11-15T18:56:35.313Z,17.90
2017-11-15T18:59:03.330Z,26.80
2017-11-15T19:01:31.320Z,32.10
2017-11-15T19:04:00.842Z,23.17
2017-11-15T19:06:28.929Z,18.80
2017-11-15T19:08:57.596Z,20.90
2017-11-15T19:11:25.531Z,18.20
2017-11-15T19:13:53.621Z,18.60
2017-11-15T19:16:21.568Z,17.30
2017-11-15T19:18:49.537Z,17.17
2017-11-15T19:21:18.456Z,16.63
2017-11-15T19:23:46.649Z,16.47
2017-11-15T19:26:15.615Z,16.20
2017-11-15T19:28:43.871Z,16.67
2017-11-15T19:31:11.775Z,16.30
2017-11-15T19:33:40.459Z,15.87
2017-11-15T19:36:09.328Z,17.33
2017-11-15T19:38:37.279Z,15.33
2017-11-15T19:41:05.658Z,14.80
2017-11-15T19:43:33.524Z,17.10
2017-11-15T19:46:01.623Z,15.43
2017-11-15T19:48:29.486Z,15.83
2017-11-15T19:50:57.362Z,14.57
2017-11-15T19:53:25.307Z,14.47
2017-11-15T19:55:53.510Z,16.20
2017-11-15T19:58:22.777Z,15.90
2017-11-15T20:00:50.660Z,15.20
2017-11-15T20:03:19.350Z,14.83
2017-11-15T20:05:47.608Z,16.67
2017-11-15T20:08:15.584Z,14.20
2017-11-15T20:10:43.565Z,13.53
2017-11-15T20:13:12.031Z,14.47
2017-11-15T20:15:40.096Z,12.80
2017-11-15T20:18:08.312Z,13.93
2017-11-15T20:20:37.105Z,14.27
2017-11-15T20:23:05.134Z,13.97
2017-11-15T20:25:33.399Z,15.67
2017-11-15T20:28:01.465Z,19.60
2017-11-15T20:30:29.536Z,16.60
2017-11-15T20:32:57.720Z,13.80
2017-11-15T20:35:26.298Z,12.97
2017-11-15T20:37:55.559Z,12.90
2017-11-15T20:40:23.674Z,12.70
2017-11-15T20:42:51.735Z,14.17
2017-11-15T20:45:20.150Z,13.10
2017-11-15T20:47:48.437Z,13.40
2017-11-15T20:50:17.263Z,13.13
2017-11-15T20:52:45.768Z,14.53
2017-11-15T20:55:13.941Z,12.33
2017-11-15T20:57:42.170Z,14.00
2017-11-15T21:00:10.279Z,12.70
2017-11-15T21:02:38.589Z,12.47
2017-11-15T21:05:07.352Z,12.50
2017-11-15T21:07:35.389Z,12.83
2017-11-15T21:10:03.404Z,13.27
2017-11-15T21:12:32.820Z,12.33
2017-11-15T21:15:01.102Z,13.20
2017-11-15T21:17:29.146Z,13.10
2017-11-15T21:19:57.220Z,13.30
2017-11-15T21:22:25.173Z,12.60
2017-11-15T21:24:53.347Z,13.33
2017-11-15T21:27:21.525Z,13.03
2017-11-15T21:29:49.627Z,13.50
2017-11-15T21:32:17.565Z,13.67
2017-11-15T21:34:45.732Z,12.90
2017-11-15T21:37:14.121Z,14.33
2017-11-15T21:39:42.214Z,13.13
2017-11-15T21:42:11.002Z,14.07
2017-11-15T21:44:39.043Z,14.70
2017-11-15T21:47:07.014Z,14.70
2017-11-15T21:49:35.215Z,13.10
2017-11-15T21:52:03.177Z,14.67
2017-11-15T21:54:31.327Z,12.77
2017-11-15T21:56:59.407Z,12.77
2017-11-15T21:59:27.507Z,13.03
2017-11-15T22:01:56.367Z,13.77
2017-11-15T22:04:24.396Z,12.60
2017-11-15T22:06:52.599Z,12.70
2017-11-15T22:09:20.528Z,14.20
2017-11-15T22:11:48.591Z,13.57
2017-11-15T22:14:17.638Z,14.97
2017-11-15T22:16:46.042Z,14.20
2017-11-15T22:19:14.652Z,14.40
2017-11-15T22:21:43.306Z,14.43
2017-11-15T22:24:11.384Z,14.50
2017-11-15T22:26:39.290Z,16.30
2017-11-15T22:29:07.295Z,15.20
2017-11-15T22:31:35.366Z,14.00
2017-11-15T22:34:03.202Z,17.13
2017-11-15T22:36:31.319Z,14.60
2017-11-15T22:38:59.147Z,15.80
2017-11-15T22:41:27.265Z,15.70
2017-11-15T22:43:55.305Z,17.50
2017-11-15T22:46:23.283Z,17.20
2017-11-15T22:48:51.164Z,16.60
2017-11-15T22:51:19.210Z,17.53
2017-11-15T22:53:47.608Z,16.43
2017-11-15T22:56:15.660Z,16.70
2017-11-15T22:58:43.665Z,16.77
2017-11-15T23:01:11.598Z,15.50
2017-11-15T23:03:39.499Z,17.20
2017-11-15T23:06:07.575Z,16.63
2017-11-15T23:08:36.353Z,17.60
2017-11-15T23:11:04.311Z,17.30
2017-11-15T23:13:32.157Z,16.10
2017-11-15T23:16:00.352Z,17.70
2017-11-15T23:18:28.140Z,17.30
2017-11-15T23:20:56.702Z,16.57
2017-11-15T23:23:24.563Z,18.97
2017-11-15T23:25:52.517Z,16.67
2017-11-15T23:28:20.627Z,17.63
2017-11-15T23:30:49.428Z,17.60
2017-11-15T23:33:18.052Z,18.00
2017-11-15T23:35:46.230Z,16.73
2017-11-15T23:38:14.097Z,17.27
2017-11-15T23:40:42.804Z,17.80
2017-11-15T23:43:11.474Z,17.07
2017-11-15T23:45:39.561Z,18.40
2017-11-15T23:48:07.635Z,16.00
2017-11-15T23:50:35.505Z,18.33
2017-11-15T23:53:03.285Z,19.03
2017-11-15T23:55:31.230Z,18.03
2017-11-15T23:57:59.177Z,18.33
